Time;durP1;ratioP1;P1;durP2;ratioP2;P2;SDS_P1;SDS_P2;PMS_P1;PMS_P2;Temp;Humidity;BMP_temperature;BMP_pressure;BME280_temperature;BME280_humidity;BME280_pressure;Samples;Min_cycle;Max_cycle;Signal;HPM_P1;HPM_P2
2021/10/23 00:01:15;;;;;;;8.90;3.05;;;;;;;5.42;72.98;96995.66;5110786;28;20067;-74
2021/10/23 00:03:42;;;;;;;5.93;2.50;;;;;;;5.36;73.07;96994.03;5111560;28;20521;-74
2021/10/23 00:06:08;;;;;;;5.72;2.75;;;;;;;5.32;73.37;96997.53;5109840;28;20055;-76
2021/10/23 00:08:35;;;;;;;10.65;2.70;;;;;;;5.30;73.53;97000.53;5111331;27;20074;-74
2021/10/23 00:11:01;;;;;;;5.35;2.58;;;;;;;5.28;73.56;96991.06;5110218;27;20054;-73
2021/10/23 00:13:29;;;;;;;7.18;2.75;;;;;;;5.28;73.56;96997.28;5110794;27;20057;-75
2021/10/23 00:15:56;;;;;;;8.20;2.40;;;;;;;5.34;73.37;96998.91;5110277;28;20062;-75
2021/10/23 00:18:22;;;;;;;6.65;2.60;;;;;;;5.42;72.60;96998.34;5110418;28;20040;-75
2021/10/23 00:20:49;;;;;;;7.97;2.67;;;;;;;5.45;72.15;96992.44;5110607;27;20466;-75
2021/10/23 00:23:15;;;;;;;7.38;2.50;;;;;;;5.47;72.00;97001.06;5110079;27;20043;-74
2021/10/23 00:25:42;;;;;;;5.10;2.30;;;;;;;5.51;71.67;96998.66;5108853;27;20040;-76
2021/10/23 00:28:09;;;;;;;7.38;2.53;;;;;;;5.48;71.84;97002.72;5109087;28;20089;-74
2021/10/23 00:30:36;;;;;;;4.78;2.00;;;;;;;5.44;71.37;97007.03;5110924;28;20048;-74
2021/10/23 00:33:03;;;;;;;5.97;2.40;;;;;;;5.44;71.45;97007.03;5109317;28;20054;-73
2021/10/23 00:35:29;;;;;;;7.63;2.42;;;;;;;5.45;71.34;97011.34;5110403;28;20510;-74
2021/10/23 00:37:56;;;;;;;4.75;1.98;;;;;;;5.48;71.18;97012.69;5110086;28;20155;-74
2021/10/23 00:40:23;;;;;;;4.90;1.85;;;;;;;5.49;71.27;97015.13;5110173;28;20131;-74
2021/10/23 00:42:49;;;;;;;5.07;2.00;;;;;;;5.53;71.27;97014.56;5110209;28;20051;-74
2021/10/23 00:45:16;;;;;;;5.50;2.35;;;;;;;5.57;70.73;97015.66;5109653;27;20055;-75
2021/10/23 00:47:44;;;;;;;8.15;2.17;;;;;;;5.58;70.96;97014.56;5110357;27;20510;-74
2021/10/23 00:50:10;;;;;;;8.50;2.80;;;;;;;5.57;70.98;97015.66;5108957;27;20058;-75
2021/10/23 00:52:37;;;;;;;8.10;2.22;;;;;;;5.52;70.98;97018.38;5110579;28;20468;-74
2021/10/23 00:55:06;;;;;;;5.60;2.50;;;;;;;5.54;71.02;97022.44;5109052;28;20055;-74
2021/10/23 00:57:33;;;;;;;6.47;2.28;;;;;;;5.54;70.82;97027.03;5110210;28;20058;-75
2021/10/23 00:59:59;;;;;;;9.35;2.25;;;;;;;5.53;70.77;97033.50;5109280;28;20062;-74
2021/10/23 01:02:26;;;;;;;8.23;2.53;;;;;;;5.49;71.00;97031.34;5109542;28;20062;-75
2021/10/23 01:04:54;;;;;;;8.90;2.80;;;;;;;5.48;70.81;97029.72;5109879;28;20059;-74
2021/10/23 01:07:20;;;;;;;8.23;2.58;;;;;;;5.48;71.18;97035.13;5109351;27;20048;-74
2021/10/23 01:09:47;;;;;;;6.13;2.53;;;;;;;5.45;70.87;97030.25;5109758;28;20063;-74
2021/10/23 01:12:14;;;;;;;7.32;2.47;;;;;;;5.47;71.20;97038.88;5108384;28;20411;-74
2021/10/23 01:14:43;;;;;;;10.10;2.63;;;;;;;5.49;70.96;97033.22;5110141;28;20047;-74
2021/10/23 01:17:10;;;;;;;5.38;2.50;;;;;;;5.48;71.22;97040.53;5108865;28;20051;-74
2021/10/23 01:19:37;;;;;;;6.18;2.33;;;;;;;5.55;71.69;97034.84;5110119;28;20059;-74
2021/10/23 01:22:06;;;;;;;9.13;2.38;;;;;;;5.61;70.87;97035.66;5109081;28;20048;-74
2021/10/23 01:24:32;;;;;;;8.73;2.20;;;;;;;5.55;70.65;97034.84;5109571;28;20044;-75
2021/10/23 01:26:59;;;;;;;5.38;2.10;;;;;;;5.58;70.73;97038.91;5109066;27;20059;-74
2021/10/23 01:29:25;;;;;;;4.80;2.42;;;;;;;5.52;70.87;97035.38;5108780;28;20055;-75
2021/10/23 01:31:54;;;;;;;7.35;3.00;;;;;;;5.50;71.10;97027.56;5108948;27;20761;-75
2021/10/23 01:34:22;;;;;;;8.68;2.38;;;;;;;5.49;71.00;97030.53;5108022;28;20039;-75
2021/10/23 01:36:52;;;;;;;6.57;2.42;;;;;;;5.43;71.64;97031.63;5109811;28;20055;-74
2021/10/23 01:39:21;;;;;;;4.47;1.90;;;;;;;5.34;72.01;97034.03;5109129;27;20054;-75
2021/10/23 01:41:48;;;;;;;4.70;2.33;;;;;;;5.28;72.35;97037.00;5109653;28;20047;-75
2021/10/23 01:44:16;;;;;;;4.90;2.08;;;;;;;5.23;72.70;97040.47;5108107;28;20047;-74
2021/10/23 01:46:43;;;;;;;8.75;2.63;;;;;;;5.19;72.75;97034.00;5109317;28;20058;-74
2021/10/23 01:49:10;;;;;;;6.30;2.33;;;;;;;5.19;72.83;97031.28;5108119;28;20047;-75
2021/10/23 01:51:37;;;;;;;9.82;2.75;;;;;;;5.07;73.32;97028.03;5109371;28;20047;-75
2021/10/23 01:54:05;;;;;;;4.47;2.00;;;;;;;5.16;73.69;97034.50;5108463;28;20051;-75
2021/10/23 01:56:33;;;;;;;5.80;2.08;;;;;;;5.18;73.90;97038.56;5108431;28;20059;-75
2021/10/23 01:59:00;;;;;;;9.07;2.53;;;;;;;5.25;73.65;97041.00;5109262;28;20062;-74
2021/10/23 02:01:26;;;;;;;10.55;2.97;;;;;;;5.32;73.26;97040.75;5107992;28;20044;-74
2021/10/23 02:03:53;;;;;;;8.40;2.70;;;;;;;5.40;73.82;97043.75;5108911;28;20051;-74
2021/10/23 02:06:20;;;;;;;6.05;2.50;;;;;;;5.51;73.64;97041.88;5107913;28;20051;-74
2021/10/23 02:08:46;;;;;;;3.92;2.28;;;;;;;5.58;72.66;97038.91;5108980;27;20507;-75
2021/10/23 02:11:13;;;;;;;5.43;2.30;;;;;;;5.59;72.65;97037.84;5107772;27;20422;-74
2021/10/23 02:13:41;;;;;;;4.75;2.17;;;;;;;5.62;72.32;97045.38;5108656;28;20059;-75
2021/10/23 02:16:08;;;;;;;5.90;2.20;;;;;;;5.66;72.01;97041.06;5108080;28;20052;-73
2021/10/23 02:18:35;;;;;;;4.20;2.00;;;;;;;5.66;72.46;97036.47;5108467;28;20055;-74
2021/10/23 02:21:01;;;;;;;5.40;2.10;;;;;;;5.75;72.44;97039.47;5108367;28;20050;-71
2021/10/23 02:23:28;;;;;;;5.75;2.08;;;;;;;5.79;71.89;97034.31;5107078;28;20044;-74
2021/10/23 02:25:54;;;;;;;6.88;2.20;;;;;;;5.75;72.01;97045.69;5108783;27;20685;-74
2021/10/23 02:28:21;;;;;;;6.60;2.10;;;;;;;5.74;72.08;97043.22;5107430;28;20055;-75
2021/10/23 02:30:49;;;;;;;5.00;2.13;;;;;;;5.75;72.26;97047.56;5108796;28;20715;-74
2021/10/23 02:33:16;;;;;;;3.65;2.08;;;;;;;5.78;72.39;97049.72;5107267;27;20054;-74
2021/10/23 02:35:42;;;;;;;7.15;2.17;;;;;;;5.81;72.74;97054.59;5108180;28;20677;-75
2021/10/23 02:38:10;;;;;;;7.97;2.42;;;;;;;5.82;71.66;97050.00;5107723;28;20049;-74
2021/10/23 02:40:37;;;;;;;7.18;2.40;;;;;;;5.81;71.63;97053.78;5107868;28;20051;-74
2021/10/23 02:43:04;;;;;;;4.93;2.35;;;;;;;5.82;71.87;97055.41;5108083;28;20047;-75
2021/10/23 02:45:30;;;;;;;4.72;2.00;;;;;;;5.82;71.90;97061.63;5107881;28;20062;-75
2021/10/23 02:47:58;;;;;;;7.35;2.40;;;;;;;5.86;71.64;97062.69;5108570;28;20651;-76
2021/10/23 02:50:25;;;;;;;7.35;2.10;;;;;;;5.82;71.65;97056.22;5107079;28;20845;-74
2021/10/23 02:52:53;;;;;;;6.82;2.03;;;;;;;5.86;71.34;97062.69;5108795;28;20051;-74
2021/10/23 02:55:20;;;;;;;5.03;2.25;;;;;;;5.83;71.45;97068.63;5106699;28;20094;-74
2021/10/23 02:57:46;;;;;;;4.70;2.28;;;;;;;5.87;71.58;97074.31;5108447;28;20051;-74
2021/10/23 03:00:14;;;;;;;5.50;2.50;;;;;;;5.83;72.18;97073.22;5107085;28;20048;-74
2021/10/23 03:02:40;;;;;;;13.13;2.75;;;;;;;5.88;71.78;97074.03;5107963;28;20051;-74
2021/10/23 03:05:09;;;;;;;4.88;2.33;;;;;;;5.96;72.27;97078.16;5107305;28;20051;-74
2021/10/23 03:07:35;;;;;;;6.35;2.15;;;;;;;5.91;71.45;97081.66;5107742;28;20071;-74
2021/10/23 03:10:02;;;;;;;5.25;2.05;;;;;;;5.97;72.20;97080.56;5107499;28;20425;-74
2021/10/23 03:12:29;;;;;;;5.68;2.25;;;;;;;6.01;71.45;97076.25;5107245;28;20079;-75
2021/10/23 03:14:56;;;;;;;4.05;2.15;;;;;;;6.05;71.06;97083.81;5108557;28;20493;-75
2021/10/23 03:17:23;;;;;;;4.82;2.28;;;;;;;6.09;71.34;97085.69;5106906;28;20054;-74
2021/10/23 03:19:49;;;;;;;6.20;2.53;;;;;;;6.13;71.05;97084.09;5108105;28;20658;-76
2021/10/23 03:22:17;;;;;;;5.13;2.25;;;;;;;6.14;71.52;97085.69;5107073;28;20047;-75
2021/10/23 03:24:44;;;;;;;8.20;3.15;;;;;;;6.13;71.84;97089.50;5107798;28;20074;-75
2021/10/23 03:27:10;;;;;;;5.13;2.05;;;;;;;6.17;70.83;97090.56;5107088;28;20043;-74
2021/10/23 03:29:36;;;;;;;6.85;2.03;;;;;;;6.12;70.91;97093.28;5107314;28;20501;-76
2021/10/23 03:32:03;;;;;;;6.15;2.22;;;;;;;6.16;70.52;97088.13;5107279;28;20057;-74
2021/10/23 03:34:30;;;;;;;6.95;1.90;;;;;;;6.16;70.37;97093.53;5121709;27;20059;-74
2021/10/23 03:36:56;;;;;;;5.63;2.05;;;;;;;6.19;71.03;97093.00;5132581;27;20050;-74
2021/10/23 03:39:24;;;;;;;6.35;2.25;;;;;;;6.19;70.71;97093.00;5131166;27;20043;-75
2021/10/23 03:41:50;;;;;;;6.00;1.90;;;;;;;6.19;70.48;97093.00;5132702;27;20047;-74
2021/10/23 03:44:17;;;;;;;7.20;1.92;;;;;;;6.24;70.20;97098.41;5130879;27;20051;-75
2021/10/23 03:46:43;;;;;;;7.05;1.90;;;;;;;6.28;70.22;97099.50;5132377;27;20061;-75
2021/10/23 03:49:10;;;;;;;6.07;1.90;;;;;;;6.26;70.04;97109.75;5131342;27;20054;-78
2021/10/23 03:51:36;;;;;;;8.05;2.05;;;;;;;6.24;69.73;97110.03;5131697;27;20119;-75
2021/10/23 03:54:03;;;;;;;5.10;1.88;;;;;;;6.32;70.18;97108.69;5131268;27;20055;-74
2021/10/23 03:56:30;;;;;;;7.68;2.03;;;;;;;6.34;69.65;97106.50;5119614;27;20048;-75
2021/10/23 03:58:57;;;;;;;5.25;1.83;;;;;;;6.31;69.34;97109.75;5111262;28;20048;-75
2021/10/23 04:01:24;;;;;;;7.00;2.00;;;;;;;6.31;69.37;97120.56;5110171;27;20059;-74
2021/10/23 04:03:51;;;;;;;5.28;2.05;;;;;;;6.34;69.64;97117.34;5111580;27;20055;-73
2021/10/23 04:06:17;;;;;;;3.67;1.85;;;;;;;6.35;69.47;97118.94;5110030;28;20043;-74
2021/10/23 04:08:44;;;;;;;6.18;2.15;;;;;;;6.39;69.21;97124.63;5111391;28;20158;-76
2021/10/23 04:11:10;;;;;;;7.32;2.17;;;;;;;6.38;69.39;97129.25;5110084;28;20139;-75
2021/10/23 04:13:38;;;;;;;4.53;1.90;;;;;;;6.35;69.38;97118.94;5110753;28;20563;-74
2021/10/23 04:16:05;;;;;;;7.28;1.85;;;;;;;6.34;70.11;97128.16;5110218;28;20047;-74
2021/10/23 04:18:31;;;;;;;5.50;1.83;;;;;;;6.38;69.57;97129.25;5110552;28;20051;-75
2021/10/23 04:20:58;;;;;;;6.15;2.10;;;;;;;6.35;69.95;97129.78;5110981;27;20050;-74
2021/10/23 04:23:25;;;;;;;5.18;2.03;;;;;;;6.38;69.21;97131.94;5109667;28;20126;-75
2021/10/23 04:25:51;;;;;;;4.05;1.90;;;;;;;6.38;69.28;97136.53;5111277;27;20051;-74
2021/10/23 04:28:18;;;;;;;4.90;1.90;;;;;;;6.39;69.63;97130.84;5109635;27;20050;-76
2021/10/23 04:30:46;;;;;;;3.38;1.58;;;;;;;6.43;69.87;97137.34;5111365;28;20054;-74
2021/10/23 04:33:12;;;;;;;6.82;2.30;;;;;;;6.47;70.01;97133.03;5109461;28;20047;-75
2021/10/23 04:35:39;;;;;;;9.95;2.60;;;;;;;6.42;69.88;97137.59;5110387;28;20047;-75
2021/10/23 04:38:05;;;;;;;6.20;2.10;;;;;;;6.40;69.57;97134.38;5110049;27;20056;-74
2021/10/23 04:40:31;;;;;;;6.50;2.17;;;;;;;6.38;69.95;97139.25;5110098;28;20047;-74
2021/10/23 04:42:58;;;;;;;6.20;1.90;;;;;;;6.35;69.71;97137.06;5110474;27;20051;-75
2021/10/23 04:45:24;;;;;;;6.05;2.20;;;;;;;6.35;69.80;97140.59;5109617;27;20062;-74
2021/10/23 04:47:52;;;;;;;5.18;1.92;;;;;;;6.40;70.07;97142.47;5109736;28;20047;-74
2021/10/23 04:50:19;;;;;;;6.03;1.83;;;;;;;6.43;69.61;97148.16;5108915;28;20051;-74
2021/10/23 04:52:45;;;;;;;8.10;2.15;;;;;;;6.47;69.29;97148.41;5111003;28;20056;-74
2021/10/23 04:55:11;;;;;;;5.18;1.83;;;;;;;6.49;69.27;97155.19;5109228;27;20055;-77
2021/10/23 04:57:38;;;;;;;6.35;1.70;;;;;;;6.53;69.05;97148.16;5109517;27;20055;-74
2021/10/23 05:00:06;;;;;;;4.40;2.10;;;;;;;6.51;69.02;97146.81;5109258;27;20048;-74
2021/10/23 05:02:32;;;;;;;5.63;1.92;;;;;;;6.47;69.25;97143.00;5109935;27;20056;-74
2021/10/23 05:05:00;;;;;;;5.70;1.98;;;;;;;6.47;69.43;97143.84;5109613;28;20048;-76
2021/10/23 05:07:26;;;;;;;6.63;2.33;;;;;;;6.47;69.74;97148.41;5109793;28;20054;-75
2021/10/23 05:09:53;;;;;;;7.32;1.75;;;;;;;6.46;69.59;97153.03;5110152;28;20058;-75
2021/10/23 05:12:19;;;;;;;6.93;2.00;;;;;;;6.46;69.65;97152.22;5109117;28;20039;-75
2021/10/23 05:14:46;;;;;;;8.63;1.77;;;;;;;6.49;70.11;97152.50;5110362;28;20438;-74
2021/10/23 05:17:12;;;;;;;4.97;1.70;;;;;;;6.52;70.06;97153.81;5108679;28;20405;-74
2021/10/23 05:19:38;;;;;;;6.95;1.70;;;;;;;6.56;69.72;97159.50;5110206;28;20051;-74
2021/10/23 05:22:06;;;;;;;7.38;2.13;;;;;;;6.62;69.88;97166.53;5108914;27;20051;-74
2021/10/23 05:24:34;;;;;;;4.75;1.52;;;;;;;6.62;69.96;97166.53;5109641;27;20621;-75
2021/10/23 05:27:00;;;;;;;7.68;1.73;;;;;;;6.60;69.73;97168.72;5109557;27;20052;-74
2021/10/23 05:29:27;;;;;;;6.70;1.77;;;;;;;6.63;69.89;97162.75;5108877;28;20044;-74
2021/10/23 05:31:53;;;;;;;5.78;2.30;;;;;;;6.60;69.84;97160.59;5109415;27;20051;-76
2021/10/23 05:34:19;;;;;;;7.20;2.13;;;;;;;6.50;70.22;97156.81;5108397;28;20051;-74
2021/10/23 05:36:46;;;;;;;6.72;1.83;;;;;;;6.51;70.47;97161.13;5109780;28;20448;-76
2021/10/23 05:39:14;;;;;;;6.22;1.77;;;;;;;6.53;70.98;97166.28;5107934;28;20050;-74
2021/10/23 05:41:40;;;;;;;6.00;1.70;;;;;;;6.50;70.95;97170.34;5109883;28;20059;-75
2021/10/23 05:44:07;;;;;;;6.93;2.05;;;;;;;6.48;71.36;97164.41;5108118;28;20050;-74
2021/10/23 05:46:33;;;;;;;5.25;1.90;;;;;;;6.49;71.34;97168.72;5109228;28;20502;-74
2021/10/23 05:49:00;;;;;;;7.57;1.83;;;;;;;6.47;70.97;97170.06;5108602;28;20055;-74
2021/10/23 05:51:27;;;;;;;6.03;2.15;;;;;;;6.47;71.12;97170.91;5108666;28;20494;-74
2021/10/23 05:53:53;;;;;;;6.05;2.08;;;;;;;6.51;70.93;97171.97;5108846;28;20503;-74
2021/10/23 05:56:21;;;;;;;6.30;1.83;;;;;;;6.54;70.68;97171.44;5108540;27;20122;-74
2021/10/23 05:58:48;;;;;;;6.22;2.00;;;;;;;6.56;70.18;97179.25;5109027;27;20062;-74
2021/10/23 06:01:15;;;;;;;5.60;2.00;;;;;;;6.56;70.39;97176.56;5107818;28;20051;-75
2021/10/23 06:03:42;;;;;;;5.60;2.03;;;;;;;6.58;70.94;97181.69;5109061;28;20048;-74
2021/10/23 06:06:09;;;;;;;3.95;2.08;;;;;;;6.56;70.93;97178.47;5108158;28;20105;-74
2021/10/23 06:08:36;;;;;;;7.78;2.30;;;;;;;6.56;70.90;97184.69;5108835;28;20054;-74
2021/10/23 06:11:03;;;;;;;6.20;1.80;;;;;;;6.57;71.01;97180.06;5107987;28;20156;-73
2021/10/23 06:13:33;;;;;;;10.52;2.10;;;;;;;6.60;71.21;97190.38;5108652;28;20422;-74
2021/10/23 06:15:59;;;;;;;9.02;2.13;;;;;;;6.64;70.99;97189.56;5108199;28;20082;-74
2021/10/23 06:18:26;;;;;;;6.78;2.08;;;;;;;6.66;70.70;97194.69;5107680;28;20055;-74
2021/10/23 06:20:52;;;;;;;9.65;2.10;;;;;;;6.69;70.39;97203.09;5108908;28;20052;-75
2021/10/23 06:23:19;;;;;;;5.20;2.03;;;;;;;6.73;71.07;97212.28;5107617;28;20051;-75
2021/10/23 06:25:45;;;;;;;6.70;2.13;;;;;;;6.76;70.99;97217.13;5108910;28;20050;-74
2021/10/23 06:28:12;;;;;;;7.22;1.95;;;;;;;6.83;71.28;97213.34;5106904;27;20059;-74
2021/10/23 06:30:40;;;;;;;7.60;2.40;;;;;;;6.91;70.93;97224.44;5108765;27;20059;-74
2021/10/23 06:33:06;;;;;;;6.15;2.20;;;;;;;6.96;71.12;97213.59;5107050;28;20043;-74
2021/10/23 06:35:33;;;;;;;8.65;2.50;;;;;;;7.01;70.81;97221.72;5108613;28;20136;-74
2021/10/23 06:37:59;;;;;;;4.93;2.17;;;;;;;7.00;70.44;97217.41;5107651;28;20043;-74
2021/10/23 06:40:26;;;;;;;6.70;2.65;;;;;;;7.00;70.70;97222.00;5107945;27;20062;-74
2021/10/23 06:42:52;;;;;;;10.77;2.40;;;;;;;7.06;70.09;97223.59;5108250;28;20051;-75
2021/10/23 06:45:19;;;;;;;8.23;1.83;;;;;;;7.03;69.82;97232.28;5107161;28;20048;-75
2021/10/23 06:47:47;;;;;;;8.88;1.85;;;;;;;7.00;69.67;97233.63;5108306;28;20052;-75
2021/10/23 06:50:15;;;;;;;8.15;2.17;;;;;;;7.00;70.02;97233.63;5107155;28;20604;-75
2021/10/23 06:52:41;;;;;;;5.03;2.25;;;;;;;7.00;70.21;97233.63;5108359;28;20072;-74
2021/10/23 06:55:09;;;;;;;6.25;2.08;;;;;;;7.06;70.60;97243.38;5107226;28;20071;-75
2021/10/23 06:57:35;;;;;;;5.03;2.10;;;;;;;7.13;70.13;97245.78;5108366;28;20048;-75
2021/10/23 07:00:02;;;;;;;5.32;2.00;;;;;;;7.18;70.50;97256.63;5107099;28;20063;-74
2021/10/23 07:02:28;;;;;;;7.38;2.30;;;;;;;7.24;70.47;97265.53;5108466;28;20062;-74
2021/10/23 07:04:56;;;;;;;7.50;2.28;;;;;;;7.27;70.76;97275.84;5107943;28;20044;-74
2021/10/23 07:07:23;;;;;;;8.50;2.38;;;;;;;7.32;71.02;97275.84;5107345;28;20048;-75
2021/10/23 07:09:49;;;;;;;6.78;2.30;;;;;;;7.31;70.30;97271.50;5109166;28;20063;-75
2021/10/23 07:12:15;;;;;;;4.63;2.10;;;;;;;7.32;70.43;97283.97;5111691;28;20629;-74
2021/10/23 07:14:42;;;;;;;7.03;2.25;;;;;;;7.39;70.18;97284.47;5112529;27;20070;-75
2021/10/23 07:17:08;;;;;;;5.95;2.28;;;;;;;7.46;70.48;97289.59;5111042;27;20414;-75
2021/10/23 07:19:35;;;;;;;6.70;2.50;;;;;;;7.54;70.28;97289.88;5112629;28;20063;-74
2021/10/23 07:22:03;;;;;;;5.32;2.17;;;;;;;7.58;69.55;97292.84;5111499;27;20066;-75
2021/10/23 07:24:29;;;;;;;12.48;2.30;;;;;;;7.66;69.61;97300.38;5112214;27;20048;-74
2021/10/23 07:26:56;;;;;;;5.05;1.60;;;;;;;7.68;69.14;97297.44;5112232;27;20047;-75
2021/10/23 07:29:22;;;;;;;6.35;2.40;;;;;;;7.68;69.02;97300.13;5111391;27;20054;-74
2021/10/23 07:31:49;;;;;;;4.32;1.80;;;;;;;7.72;68.68;97309.31;5111759;27;20051;-76
2021/10/23 07:34:15;;;;;;;5.38;1.92;;;;;;;7.75;68.52;97309.59;5110964;27;20047;-76
2021/10/23 07:36:42;;;;;;;5.93;2.28;;;;;;;7.81;69.15;97318.50;5111927;27;20051;-75
2021/10/23 07:39:09;;;;;;;7.03;2.10;;;;;;;7.92;68.58;97320.09;5110586;27;20044;-74
2021/10/23 07:41:38;;;;;;;6.55;2.30;;;;;;;7.98;67.96;97318.19;5112171;27;20058;-75
2021/10/23 07:44:05;;;;;;;5.63;1.95;;;;;;;7.92;67.67;97324.72;5110322;27;20092;-75
2021/10/23 07:46:31;;;;;;;7.93;1.83;;;;;;;7.98;67.98;97329.84;5111455;27;20491;-75
2021/10/23 07:48:58;;;;;;;5.57;2.17;;;;;;;8.05;68.88;97330.38;5110742;27;20048;-75
2021/10/23 07:51:24;;;;;;;4.82;2.30;;;;;;;8.08;68.67;97324.38;5111186;27;20424;-74
2021/10/23 07:53:51;;;;;;;5.18;1.83;;;;;;;8.11;68.65;97334.69;5110900;27;21260;-74
2021/10/23 07:56:19;;;;;;;6.40;2.10;;;;;;;8.10;67.75;97338.47;5110375;27;20241;-74
2021/10/23 07:58:45;;;;;;;6.32;1.90;;;;;;;8.08;67.01;97335.22;5111107;28;20097;-74
2021/10/23 08:01:13;;;;;;;7.03;1.92;;;;;;;8.04;66.95;97336.88;5111007;28;20055;-75
2021/10/23 08:03:39;;;;;;;9.02;1.73;;;;;;;8.04;68.20;97328.75;5111647;27;20048;-75
2021/10/23 08:06:06;;;;;;;5.80;1.90;;;;;;;8.06;67.94;97337.41;5109933;28;20055;-74
2021/10/23 08:08:32;;;;;;;8.13;2.03;;;;;;;8.08;67.37;97329.78;5111339;28;20494;-74
2021/10/23 08:11:01;;;;;;;5.15;1.90;;;;;;;8.19;67.35;97325.13;5110558;27;20048;-74
2021/10/23 08:13:30;;;;;;;7.45;1.80;;;;;;;8.27;68.10;97329.19;5110621;28;20052;-74
2021/10/23 08:15:56;;;;;;;6.28;2.20;;;;;;;8.35;67.13;97323.16;5110489;27;20512;-75
2021/10/23 08:18:24;;;;;;;6.82;1.80;;;;;;;8.32;66.71;97315.59;5110482;28;20052;-74
2021/10/23 08:20:50;;;;;;;5.05;2.47;;;;;;;8.28;66.65;97300.94;5110097;28;20067;-74
2021/10/23 08:23:17;;;;;;;8.20;2.42;;;;;;;8.24;66.55;97300.69;5109600;28;20657;-74
2021/10/23 08:25:44;;;;;;;6.13;2.40;;;;;;;8.24;66.80;97310.72;5111307;27;20043;-74
2021/10/23 08:28:10;;;;;;;7.22;2.30;;;;;;;8.30;68.34;97304.19;5109562;27;20828;-74
2021/10/23 08:30:38;;;;;;;9.60;2.22;;;;;;;8.40;66.97;97301.44;5110941;28;20052;-75
2021/10/23 08:33:05;;;;;;;6.88;1.92;;;;;;;8.37;66.21;97310.16;5109673;27;20051;-74
2021/10/23 08:35:31;;;;;;;7.35;2.38;;;;;;;8.40;66.68;97315.00;5111049;28;20075;-75
2021/10/23 08:37:59;;;;;;;7.35;2.22;;;;;;;8.38;66.60;97306.34;5110225;28;20044;-75
2021/10/23 08:40:26;;;;;;;9.23;2.47;;;;;;;8.38;66.39;97306.34;5110117;28;20059;-74
2021/10/23 08:42:54;;;;;;;9.15;2.20;;;;;;;8.32;66.42;97313.69;5110034;27;20418;-74
2021/10/23 08:45:23;;;;;;;8.07;2.15;;;;;;;8.28;66.65;97317.22;5109236;28;20054;-74
2021/10/23 08:47:51;;;;;;;7.03;2.38;;;;;;;8.41;67.99;97311.22;5110583;27;20092;-74
2021/10/23 08:50:19;;;;;;;7.05;2.20;;;;;;;8.53;67.56;97319.84;5109494;28;20044;-74
2021/10/23 08:52:47;;;;;;;7.25;2.33;;;;;;;8.70;67.52;97307.78;5110770;28;20052;-76
2021/10/23 08:55:15;;;;;;;8.07;2.60;;;;;;;8.74;65.39;97308.84;5109884;27;20040;-75
2021/10/23 08:57:42;;;;;;;9.73;2.40;;;;;;;8.73;65.78;97305.31;5109954;27;20157;-75
2021/10/23 09:00:10;;;;;;;9.93;2.45;;;;;;;8.98;66.06;97307.03;5109431;28;20047;-74
2021/10/23 09:02:37;;;;;;;6.20;2.03;;;;;;;9.32;64.13;97309.69;5110287;27;20043;-75
2021/10/23 09:05:06;;;;;;;9.10;2.40;;;;;;;9.61;63.84;97312.41;5109788;28;20502;-74
2021/10/23 09:07:33;;;;;;;6.95;2.80;;;;;;;9.87;63.23;97315.66;5110058;27;20051;-75
2021/10/23 09:10:02;;;;;;;8.20;2.88;;;;;;;10.26;63.56;97313.84;5110130;27;20044;-76
2021/10/23 09:12:30;;;;;;;8.27;3.85;;;;;;;10.71;60.82;97317.88;5109646;28;20047;-75
2021/10/23 09:14:59;;;;;;;9.25;3.38;;;;;;;11.01;60.41;97319.28;5110657;28;20047;-75
2021/10/23 09:17:26;;;;;;;8.63;3.38;;;;;;;11.04;58.93;97318.72;5108974;28;20518;-74
2021/10/23 09:19:55;;;;;;;9.50;3.20;;;;;;;11.11;59.04;97324.59;5110284;28;20055;-74
2021/10/23 09:22:26;;;;;;;7.18;2.90;;;;;;;11.11;59.14;97319.13;5109174;28;20048;-74
2021/10/23 09:25:08;;;;;;;5.65;3.10;;;;;;;11.12;60.88;97320.78;5109569;28;20079;-74
2021/10/23 09:27:35;;;;;;;5.20;2.88;;;;;;;11.12;60.70;97323.50;5108788;28;20043;-75
2021/10/23 09:30:02;;;;;;;6.75;3.33;;;;;;;10.97;59.89;97315.56;5108402;28;20051;-70
2021/10/23 09:32:33;;;;;;;9.85;3.35;;;;;;;10.80;60.47;97318.00;5109193;28;20056;-75
2021/10/23 09:35:14;;;;;;;7.18;3.08;;;;;;;10.64;60.26;97318.22;5108389;28;20050;-74
2021/10/23 09:37:43;;;;;;;7.85;3.47;;;;;;;10.46;61.58;97327.19;5109763;28;20597;-74
2021/10/23 09:40:11;;;;;;;9.27;3.42;;;;;;;10.42;62.70;97326.97;5108030;28;20047;-74
2021/10/23 09:42:37;;;;;;;9.95;4.13;;;;;;;10.31;62.45;97330.13;5109099;28;20055;-74
2021/10/23 09:45:06;;;;;;;9.65;4.10;;;;;;;10.26;62.72;97330.19;5108200;28;20047;-76
2021/10/23 09:47:34;;;;;;;10.18;4.55;;;;;;;10.25;63.70;97331.31;5109208;27;20067;-75
2021/10/23 09:50:20;;;;;;;8.93;3.95;;;;;;;10.19;63.83;97339.50;5109114;28;20647;-74
2021/10/23 09:53:03;;;;;;;9.18;3.78;;;;;;;10.32;62.78;97337.19;5108044;28;20044;-76
2021/10/23 09:55:50;;;;;;;6.93;3.25;;;;;;;10.65;63.77;97336.19;5108940;28;20536;-74
2021/10/23 09:58:18;;;;;;;7.43;2.78;;;;;;;10.85;61.74;97331.53;5107723;27;20113;-74
2021/10/23 10:00:46;;;;;;;4.18;2.83;;;;;;;10.83;60.32;97329.13;5108569;28;20688;-74
2021/10/23 10:03:14;;;;;;;6.22;2.90;;;;;;;10.75;61.36;97318.06;5108156;28;20053;-74
2021/10/23 10:05:41;;;;;;;8.00;3.25;;;;;;;10.56;60.52;97332.50;5108192;27;20525;-74
2021/10/23 10:08:11;;;;;;;7.47;3.50;;;;;;;10.44;60.61;97340.31;5108508;28;20055;-74
2021/10/23 10:10:40;;;;;;;6.93;3.08;;;;;;;10.47;62.13;97331.53;5108142;28;20055;-74
2021/10/23 10:13:07;;;;;;;8.13;3.65;;;;;;;10.66;61.62;97332.38;5108520;28;20079;-74
2021/10/23 10:15:34;;;;;;;6.32;2.90;;;;;;;10.88;61.10;97323.59;5108051;28;20055;-74
2021/10/23 10:18:05;;;;;;;5.97;2.95;;;;;;;11.24;60.88;97321.09;5108433;28;20055;-74
2021/10/23 10:20:34;;;;;;;5.38;2.90;;;;;;;11.54;58.36;97324.41;5108168;28;20040;-76
2021/10/23 10:23:00;;;;;;;7.82;2.63;;;;;;;11.79;55.94;97319.59;5107718;27;20051;-76
2021/10/23 10:25:28;;;;;;;3.70;1.92;;;;;;;11.94;54.29;97322.03;5108356;28;20047;-75
2021/10/23 10:27:55;;;;;;;3.40;2.10;;;;;;;11.87;53.67;97322.47;5107855;28;20044;-75
2021/10/23 10:30:27;;;;;;;5.45;2.20;;;;;;;12.08;54.88;97316.59;5108364;28;20134;-75
2021/10/23 10:32:54;;;;;;;6.45;2.38;;;;;;;12.32;56.59;97311.72;5107422;28;20079;-75
2021/10/23 10:38:41;;;;;;;5.55;3.03;;;;;;;12.38;55.48;97321.44;5107103;28;20086;-76
2021/10/23 10:44:29;;;;;;;7.32;2.83;;;;;;;12.09;56.39;97313.56;5108048;28;20054;-75
2021/10/23 10:47:16;;;;;;;6.82;3.25;;;;;;;12.15;56.99;97323.25;5107227;28;20070;-75
2021/10/23 10:49:53;;;;;;;11.85;3.72;;;;;;;12.16;57.89;97324.91;5107762;28;20058;-76
2021/10/23 10:52:54;;;;;;;10.63;4.05;;;;;;;12.05;58.05;97328.91;5107806;28;20075;-75
2021/10/23 10:55:21;;;;;;;8.05;3.58;;;;;;;11.82;58.33;97321.75;5103856;27;20078;-75
2021/10/23 10:58:05;;;;;;;9.95;4.35;;;;;;;11.67;59.02;97326.34;5107737;28;20058;-75
2021/10/23 11:00:51;;;;;;;;;;;;;;;11.63;60.54;97314.41;5107914;28;20448;-76
2021/10/23 11:03:35;;;;;;;7.63;3.92;;;;;;;11.56;59.89;97316.72;5107393;28;20386;-75
2021/10/23 11:06:16;;;;;;;;;;;;;;;11.55;60.15;97319.78;5108479;28;20059;-74
2021/10/23 11:08:43;;;;;;;5.60;3.20;;;;;;;11.48;60.08;97320.13;5107261;28;19927;-75
2021/10/23 11:11:09;;;;;;;8.18;3.90;;;;;;;11.48;59.79;97318.25;5107569;28;20048;-76
2021/10/23 11:13:44;;;;;;;6.40;3.80;;;;;;;11.46;60.64;97306.00;5107776;28;20055;-75
2021/10/23 11:16:24;;;;;;;9.23;4.40;;;;;;;11.39;60.59;97317.31;5107405;28;20151;-76
2021/10/23 11:19:00;;;;;;;11.10;4.68;;;;;;;11.31;61.49;97317.97;5108357;28;20417;-76
2021/10/23 11:21:27;;;;;;;10.30;4.20;;;;;;;11.24;61.69;97315.66;5106821;28;20159;-76
2021/10/23 11:23:55;;;;;;;7.45;4.05;;;;;;;11.21;62.02;97309.97;5108311;28;20051;-75
2021/10/23 11:26:21;;;;;;;10.05;4.15;;;;;;;11.22;61.04;97317.03;5106580;28;20144;-76
2021/10/23 11:28:50;;;;;;;8.10;4.70;;;;;;;11.33;60.79;97312.22;5108489;28;20063;-75
2021/10/23 11:31:18;;;;;;;7.38;4.30;;;;;;;11.43;60.14;97307.44;5106839;28;20452;-75
2021/10/23 11:33:44;;;;;;;8.05;4.45;;;;;;;11.53;59.93;97306.41;5107831;28;20047;-76
2021/10/23 11:36:14;;;;;;;9.18;3.60;;;;;;;11.67;57.96;97307.25;5106834;28;20051;-76
2021/10/23 11:38:41;;;;;;;10.32;4.50;;;;;;;11.78;61.25;97307.84;5107472;28;20433;-76
2021/10/23 11:41:07;;;;;;;8.88;4.00;;;;;;;11.94;57.53;97302.94;5107312;28;20058;-76
2021/10/23 11:43:36;;;;;;;6.07;3.92;;;;;;;11.96;57.00;97300.75;5107514;28;20514;-77
2021/10/23 11:46:05;;;;;;;7.90;3.33;;;;;;;12.00;57.62;97305.25;5107727;28;20082;-77
2021/10/23 11:48:32;;;;;;;7.93;3.40;;;;;;;12.04;55.89;97300.00;5107049;28;20057;-76